»·PEaware :: ASA153 KGEG-KPDX

ASA153 :: KGEG-KPDX

FLIGHT INFORMATION

Flight Status: Arrived
Operator:
Alaska Airlines
More flights by this operator :: More flights under this callsign
Pilot: Anonymous 12234 (12234)
Aircraft: BOEING 737-200
(B732)
More flights by this aircraft type
Origin: KGEG Spokane Intl
United States
Destination: KPDX Portland Intl
United States
More flights between these airports :: More routes between these airports
Route: GEG J136 BTG
File this flight plan on PilotEdge
Remarks:
Altitude:
(Current/Filed)
22,000ft
Speed:
(Current/Filed)
435kts
Departed: 17-Apr-18 06:44 PM
Arrived: 17-Apr-18 07:38 PM
Distance/Time
Traveled:
242nm/0:54
Distance/Time
To Go:
Arrived

Flight Plot

Page will automatically refresh every two minutes.

Flight plan parsing failed; only flown route is shown


Map Options




Map Legend


Flown Route
Filed Route
Departure Airport
Arrival Airport
Navaid (VOR, NDB)
Fix

Horizontal Profiles

Position Reports

Time Latitude Longitude Heading Altitude Ground
Speed
17-Apr-18 18:12 47.625107 -117.534603 5 2358ft 0kts
17-Apr-18 18:13 47.625107 -117.534603 5 2358ft 0kts
17-Apr-18 18:14 47.625107 -117.534603 5 2358ft 0kts
17-Apr-18 18:15 47.625107 -117.534603 5 2358ft 0kts
17-Apr-18 18:16 47.625107 -117.534603 5 2358ft 0kts
17-Apr-18 18:17 47.625107 -117.534603 5 2358ft 0kts
17-Apr-18 18:18 47.625107 -117.534603 5 2358ft 0kts
17-Apr-18 18:19 47.625107 -117.534603 5 2358ft 0kts
17-Apr-18 18:20 47.625107 -117.534603 5 2358ft 0kts
17-Apr-18 18:21 47.625107 -117.534603 5 2358ft 0kts
17-Apr-18 18:22 47.625107 -117.534603 5 2358ft 0kts
17-Apr-18 18:23 47.625107 -117.534603 5 2358ft 0kts
17-Apr-18 18:24 47.625107 -117.534603 5 2358ft 0kts
17-Apr-18 18:25 47.625107 -117.534603 5 2358ft 0kts
17-Apr-18 18:26 47.625107 -117.534603 5 2358ft 0kts
17-Apr-18 18:27 47.625107 -117.534603 5 2358ft 0kts
17-Apr-18 18:28 47.625107 -117.534603 5 2358ft 0kts
17-Apr-18 18:29 47.625107 -117.534603 5 2358ft 0kts
17-Apr-18 18:30 47.625107 -117.534603 5 2358ft 0kts
17-Apr-18 18:31 47.625107 -117.534603 5 2358ft 0kts
17-Apr-18 18:32 47.625111 -117.534602 5 2358ft 0kts
17-Apr-18 18:33 47.624708 -117.534446 322 2358ft 2kts
17-Apr-18 18:34 47.624190 -117.534331 40 2358ft 2kts
17-Apr-18 18:35 47.624153 -117.534382 44 2358ft 0kts
17-Apr-18 18:36 47.624153 -117.534382 44 2358ft 0kts
17-Apr-18 18:37 47.624153 -117.534382 44 2358ft 0kts
17-Apr-18 18:38 47.625151 -117.532858 68 2356ft 0kts
17-Apr-18 18:39 47.625162 -117.532722 89 2356ft 1kts
17-Apr-18 18:40 47.627181 -117.528390 45 2352ft 22kts
17-Apr-18 18:41 47.632099 -117.520990 45 2331ft 9kts
17-Apr-18 18:42 47.630694 -117.519048 226 2329ft 0kts
17-Apr-18 18:43 47.620073 -117.534732 220 2434ft 154kts
17-Apr-18 18:44 47.584826 -117.573828 219 4412ft 198kts
17-Apr-18 18:45 47.533973 -117.631789 218 6488ft 258kts
17-Apr-18 18:46 47.494189 -117.716245 254 9474ft 267kts
17-Apr-18 18:47 47.474618 -117.824554 254 11690ft 294kts
17-Apr-18 18:48 47.451358 -117.941615 253 14063ft 305kts
17-Apr-18 18:49 47.415306 -118.057472 246 16115ft 318kts
17-Apr-18 18:50 47.386856 -118.144884 246 17478ft 326kts
17-Apr-18 18:51 47.351749 -118.251857 246 19004ft 334kts
17-Apr-18 18:52 47.314769 -118.371534 247 20507ft 341kts
17-Apr-18 18:53 47.275448 -118.491823 246 21854ft 348kts
17-Apr-18 18:54 47.230740 -118.624418 245 22157ft 383kts
17-Apr-18 18:55 47.183272 -118.762089 244 22192ft 413kts
17-Apr-18 18:56 47.140199 -118.886920 244 22186ft 420kts
17-Apr-18 18:57 47.087594 -119.039007 244 22182ft 419kts
17-Apr-18 18:58 47.035590 -119.188530 244 22183ft 415kts
17-Apr-18 18:59 46.983624 -119.336907 245 22184ft 412kts
17-Apr-18 19:00 46.922776 -119.477916 233 22181ft 413kts
17-Apr-18 19:01 46.868383 -119.613559 245 22181ft 408kts
17-Apr-18 19:02 46.819816 -119.752069 243 22184ft 407kts
17-Apr-18 19:03 46.768036 -119.896929 243 22238ft 406kts
17-Apr-18 19:04 46.716402 -120.040999 243 22198ft 407kts
17-Apr-18 19:05 46.664416 -120.185449 242 22183ft 405kts
17-Apr-18 19:06 46.614074 -120.323556 242 22182ft 404kts
17-Apr-18 19:07 46.561988 -120.465582 242 22205ft 403kts
17-Apr-18 19:08 46.510621 -120.607769 242 22210ft 403kts
17-Apr-18 19:09 46.462206 -120.738610 241 22212ft 406kts
17-Apr-18 19:10 46.411621 -120.874981 241 22211ft 408kts
17-Apr-18 19:11 46.359857 -121.014271 241 22210ft 410kts
17-Apr-18 19:12 46.308094 -121.152850 241 22210ft 411kts
17-Apr-18 19:13 46.254563 -121.295412 241 22208ft 412kts
17-Apr-18 19:14 46.200364 -121.438766 241 22170ft 401kts
17-Apr-18 19:15 46.149611 -121.572020 241 20144ft 378kts
17-Apr-18 19:16 46.103001 -121.693929 240 18320ft 357kts
17-Apr-18 19:17 46.057929 -121.811986 240 16224ft 346kts
17-Apr-18 19:18 46.012252 -121.928059 240 14951ft 312kts
17-Apr-18 19:19 45.972001 -122.030315 240 14972ft 308kts
17-Apr-18 19:20 45.929599 -122.137676 240 14966ft 313kts
17-Apr-18 19:21 45.886596 -122.231043 214 13283ft 309kts
17-Apr-18 19:22 45.813034 -122.261272 195 11743ft 303kts
17-Apr-18 19:23 45.732334 -122.246539 164 10024ft 304kts
17-Apr-18 19:24 45.658541 -122.217235 183 9241ft 271kts
17-Apr-18 19:25 45.590151 -122.256051 204 7756ft 268kts
17-Apr-18 19:26 45.526578 -122.299836 205 6457ft 266kts
17-Apr-18 19:27 45.500807 -122.389199 281 5125ft 270kts
17-Apr-18 19:28 45.558974 -122.440987 349 3421ft 249kts
17-Apr-18 19:29 45.575951 -122.505915 220 2886ft 228kts
17-Apr-18 19:30 45.521319 -122.547541 205 3397ft 217kts
17-Apr-18 19:31 45.462440 -122.552750 129 2980ft 229kts
17-Apr-18 19:32 45.437221 -122.477465 114 2954ft 195kts
17-Apr-18 19:33 45.467294 -122.427877 25 2979ft 195kts
17-Apr-18 19:34 45.516620 -122.448107 327 2648ft 203kts
17-Apr-18 19:35 45.557903 -122.500282 297 1573ft 185kts
17-Apr-18 19:36 45.579525 -122.556367 298 215ft 142kts
17-Apr-18 19:37 45.592002 -122.590068 276 38ft 20kts
17-Apr-18 19:38 45.592080 -122.591694 273 38ft 0kts
17-Apr-18 19:39 45.593087 -122.596776 276 38ft 18kts
17-Apr-18 19:40 45.590365 -122.601412 209 38ft 16kts
17-Apr-18 19:41 45.588576 -122.598133 31 38ft 7kts
17-Apr-18 19:42 45.589039 -122.597921 15 38ft 0kts
17-Apr-18 19:43 45.589039 -122.597921 15 38ft 0kts
17-Apr-18 19:44 45.589039 -122.597921 15 38ft 0kts
17-Apr-18 19:45 45.589039 -122.597921 15 38ft 0kts
17-Apr-18 19:46 45.589039 -122.597921 15 38ft 0kts
17-Apr-18 19:47 45.589039 -122.597921 15 38ft 0kts
17-Apr-18 19:48 45.589039 -122.597921 15 38ft 0kts
17-Apr-18 19:49 45.589039 -122.597921 15 38ft 0kts
17-Apr-18 19:50 45.589039 -122.597921 15 38ft 0kts
17-Apr-18 19:51 45.589039 -122.597921 15 38ft 0kts

Navigation Log

Ident Type
Flight plan parsing failed, navigation log unavailable